createdAt,value
2016-07-20T00:00:50.670Z,66.31
2016-07-20T00:01:42.533Z,66.59
2016-07-20T00:02:59.710Z,66.57
2016-07-20T00:04:00.513Z,66.60
2016-07-20T00:04:44.519Z,66.65
2016-07-20T00:05:45.710Z,66.66
2016-07-20T00:06:44.624Z,66.63
2016-07-20T00:07:45.011Z,66.57
2016-07-20T00:08:44.841Z,66.62
2016-07-20T00:09:47.966Z,66.69
2016-07-20T00:10:43.552Z,66.81
2016-07-20T00:11:40.060Z,66.65
2016-07-20T00:12:13.169Z,66.66
2016-07-20T00:13:48.338Z,66.71
2016-07-20T00:14:49.700Z,66.65
2016-07-20T00:15:50.874Z,66.63
2016-07-20T00:16:45.699Z,66.52
2016-07-20T00:17:49.838Z,66.60
2016-07-20T00:18:55.436Z,66.60
2016-07-20T00:19:39.215Z,66.65
2016-07-20T00:20:52.550Z,66.55
2016-07-20T00:21:42.791Z,66.51
2016-07-20T00:22:50.654Z,66.64
2016-07-20T00:23:49.708Z,66.72
2016-07-20T00:24:40.681Z,66.44
2016-07-20T00:25:44.591Z,66.44
2016-07-20T00:26:47.925Z,66.50
2016-07-20T00:27:55.402Z,66.51
2016-07-20T00:28:39.810Z,66.52
2016-07-20T00:29:49.829Z,66.48
2016-07-20T00:30:44.991Z,66.54
2016-07-20T00:31:33.942Z,66.57
2016-07-20T00:32:23.775Z,66.65
2016-07-20T00:33:17.900Z,66.54
2016-07-20T00:34:28.958Z,66.48
2016-07-20T00:35:18.056Z,66.56
2016-07-20T00:36:17.954Z,66.60
2016-07-20T00:37:22.795Z,66.60
2016-07-20T00:38:23.407Z,66.73
2016-07-20T00:39:45.463Z,66.80
2016-07-20T00:40:48.681Z,66.76
2016-07-20T00:41:44.339Z,66.91
2016-07-20T00:42:43.451Z,66.98
2016-07-20T00:43:48.536Z,66.85
2016-07-20T00:44:38.960Z,66.91
2016-07-20T00:45:13.955Z,66.86
2016-07-20T00:46:49.962Z,66.84
2016-07-20T00:47:46.547Z,66.92
2016-07-20T00:48:49.990Z,66.90
2016-07-20T00:49:42.169Z,66.96
2016-07-20T00:50:48.022Z,67.08
2016-07-20T00:51:44.982Z,67.14
2016-07-20T00:52:44.900Z,67.15
2016-07-20T00:53:50.720Z,67.11
2016-07-20T00:54:46.647Z,67.03
2016-07-20T00:55:52.833Z,67.22
2016-07-20T00:56:49.327Z,67.15
2016-07-20T00:57:47.750Z,67.14
2016-07-20T00:58:50.812Z,67.10
2016-07-20T00:59:51.847Z,67.06
2016-07-20T01:00:45.059Z,67.18
2016-07-20T01:01:48.235Z,67.17
2016-07-20T01:02:48.150Z,67.07
2016-07-20T01:03:48.598Z,67.11
2016-07-20T01:04:40.478Z,67.28
2016-07-20T01:05:13.678Z,67.24
2016-07-20T01:06:48.355Z,67.30
2016-07-20T01:07:13.629Z,67.27
2016-07-20T01:08:51.411Z,67.24
2016-07-20T01:09:51.053Z,67.29
2016-07-20T01:10:43.571Z,67.40
2016-07-20T01:11:45.971Z,67.32
2016-07-20T01:12:55.241Z,67.30
2016-07-20T01:13:44.340Z,67.35
2016-07-20T01:14:54.128Z,67.44
2016-07-20T01:15:45.844Z,67.40
2016-07-20T01:16:49.573Z,67.32
2016-07-20T01:17:45.927Z,67.26
2016-07-20T01:18:45.118Z,67.30
2016-07-20T01:19:54.627Z,67.22
2016-07-20T01:20:42.900Z,67.27
2016-07-20T01:21:54.644Z,67.29
2016-07-20T01:22:49.954Z,67.33
2016-07-20T01:23:43.326Z,67.14
2016-07-20T01:24:54.912Z,67.20
2016-07-20T01:25:44.778Z,67.27
2016-07-20T01:26:45.014Z,67.34
2016-07-20T01:27:54.732Z,67.33
2016-07-20T01:28:47.234Z,67.43
2016-07-20T01:29:52.352Z,67.30
2016-07-20T01:30:50.416Z,67.25
2016-07-20T01:31:54.893Z,67.35
2016-07-20T01:32:55.012Z,67.32
2016-07-20T01:33:50.044Z,67.28
2016-07-20T01:34:46.522Z,67.06
2016-07-20T01:35:43.995Z,67.02
2016-07-20T01:36:53.803Z,67.08
2016-07-20T01:37:49.026Z,67.23
2016-07-20T01:38:39.891Z,67.27
2016-07-20T01:39:26.817Z,67.21
2016-07-20T01:40:30.001Z,67.27
2016-07-20T01:41:33.727Z,67.36
2016-07-20T01:42:16.288Z,67.42
2016-07-20T01:43:15.542Z,67.48
2016-07-20T01:44:25.950Z,67.55
2016-07-20T01:45:19.109Z,67.60
2016-07-20T01:46:48.805Z,67.53
2016-07-20T01:47:45.856Z,67.45
2016-07-20T01:48:45.552Z,67.49
2016-07-20T01:49:51.328Z,67.40
2016-07-20T01:50:51.099Z,67.41
2016-07-20T01:51:49.044Z,67.28
2016-07-20T01:52:12.908Z,67.18
2016-07-20T01:53:46.170Z,67.22
2016-07-20T01:54:46.633Z,67.23
2016-07-20T01:55:52.492Z,67.11
2016-07-20T01:56:47.699Z,67.23
2016-07-20T01:57:49.784Z,67.22
2016-07-20T01:59:06.981Z,67.22
2016-07-20T01:59:52.601Z,67.22
2016-07-20T02:01:00.044Z,67.24
2016-07-20T02:01:53.668Z,67.23
2016-07-20T02:02:47.928Z,67.29
2016-07-20T02:03:46.291Z,67.15
2016-07-20T02:04:46.178Z,67.18
2016-07-20T02:05:48.526Z,67.33
2016-07-20T02:06:50.946Z,67.20
2016-07-20T02:08:00.563Z,67.27
2016-07-20T02:08:50.195Z,67.34
2016-07-20T02:10:04.722Z,67.39
2016-07-20T02:10:48.429Z,67.33
2016-07-20T02:11:33.400Z,67.41
2016-07-20T02:12:52.679Z,67.35
2016-07-20T02:13:46.164Z,67.39
2016-07-20T02:14:50.385Z,67.22
2016-07-20T02:15:50.720Z,67.29
2016-07-20T02:16:46.017Z,67.23
2016-07-20T02:17:54.181Z,67.23
2016-07-20T02:18:50.411Z,67.10
2016-07-20T02:19:51.267Z,67.08
2016-07-20T02:20:45.159Z,67.11
2016-07-20T02:21:58.553Z,67.01
2016-07-20T02:22:46.544Z,67.11
2016-07-20T02:23:41.781Z,67.16
2016-07-20T02:24:47.835Z,67.14
2016-07-20T02:25:57.220Z,67.15
2016-07-20T02:26:45.431Z,67.13
2016-07-20T02:27:55.654Z,67.15
2016-07-20T02:28:46.272Z,67.17
2016-07-20T02:29:55.275Z,67.17
2016-07-20T02:30:44.888Z,67.18
2016-07-20T02:31:48.534Z,67.04
2016-07-20T02:32:55.441Z,67.11
2016-07-20T02:33:50.278Z,67.21
2016-07-20T02:34:51.635Z,67.24
2016-07-20T02:35:45.491Z,67.36
2016-07-20T02:36:39.948Z,67.24
2016-07-20T02:37:46.193Z,67.27
2016-07-20T02:38:48.716Z,67.38
2016-07-20T02:39:44.811Z,67.31
2016-07-20T02:40:50.987Z,67.48
2016-07-20T02:41:58.489Z,66.76
2016-07-20T02:42:55.178Z,67.29
2016-07-20T02:44:00.795Z,67.31
2016-07-20T02:44:56.915Z,67.38
2016-07-20T02:45:44.937Z,67.40
2016-07-20T02:46:43.596Z,67.42
2016-07-20T02:47:38.234Z,67.37
2016-07-20T02:48:31.012Z,67.43
2016-07-20T02:49:23.010Z,67.37
2016-07-20T02:50:17.471Z,67.25
2016-07-20T02:51:18.251Z,67.23
2016-07-20T02:52:48.919Z,67.36
2016-07-20T02:53:55.434Z,67.49
2016-07-20T02:54:51.036Z,67.53
2016-07-20T02:55:50.606Z,67.51
2016-07-20T02:56:45.773Z,67.64
2016-07-20T02:57:47.123Z,67.63
2016-07-20T02:58:45.693Z,67.58
2016-07-20T03:00:00.991Z,67.49
2016-07-20T03:00:33.368Z,67.39
2016-07-20T03:01:54.127Z,67.38
2016-07-20T03:02:53.780Z,67.27
2016-07-20T03:03:58.704Z,67.11
2016-07-20T03:04:50.175Z,67.11
2016-07-20T03:05:49.259Z,67.00
2016-07-20T03:06:47.407Z,67.02
2016-07-20T03:07:51.538Z,67.21
2016-07-20T03:08:50.904Z,67.18
2016-07-20T03:09:56.915Z,67.23
2016-07-20T03:10:47.040Z,67.16
2016-07-20T03:11:53.219Z,67.13
2016-07-20T03:12:48.013Z,67.04
2016-07-20T03:14:01.258Z,67.03
2016-07-20T03:14:56.118Z,67.04
2016-07-20T03:15:45.932Z,67.08
2016-07-20T03:16:51.034Z,67.09
2016-07-20T03:17:41.477Z,67.15
2016-07-20T03:18:55.610Z,67.17
2016-07-20T03:19:46.346Z,67.15
2016-07-20T03:20:57.255Z,67.10
2016-07-20T03:21:58.036Z,67.04
2016-07-20T03:22:28.671Z,67.01
2016-07-20T03:23:47.178Z,66.89
2016-07-20T03:24:48.349Z,67.02
2016-07-20T03:25:50.200Z,66.93
2016-07-20T03:26:47.038Z,66.90
2016-07-20T03:27:54.706Z,66.97
2016-07-20T03:28:56.018Z,66.98
2016-07-20T03:29:46.171Z,67.04
2016-07-20T03:30:50.095Z,67.07
2016-07-20T03:31:51.526Z,67.10
2016-07-20T03:32:14.972Z,67.15
2016-07-20T03:33:49.141Z,67.08
2016-07-20T03:34:48.273Z,67.13
2016-07-20T03:36:04.878Z,67.01
2016-07-20T03:36:53.394Z,67.08
2016-07-20T03:37:51.703Z,67.00
2016-07-20T03:38:55.164Z,67.02
2016-07-20T03:39:51.641Z,67.01
2016-07-20T03:41:00.055Z,67.11
2016-07-20T03:41:59.534Z,67.09
2016-07-20T03:42:39.743Z,67.10
2016-07-20T03:43:52.402Z,66.89
2016-07-20T03:44:59.362Z,66.72
2016-07-20T03:45:44.129Z,65.84
2016-07-20T03:46:52.989Z,65.58
2016-07-20T03:47:54.622Z,65.54
2016-07-20T03:48:47.178Z,65.44
2016-07-20T03:49:32.564Z,65.50
2016-07-20T03:50:42.785Z,65.36
2016-07-20T03:51:33.275Z,65.21
2016-07-20T03:52:33.454Z,65.36
2016-07-20T03:53:29.661Z,65.75
2016-07-20T03:54:20.702Z,66.48
2016-07-20T03:55:44.028Z,66.79
2016-07-20T03:56:23.946Z,66.77
2016-07-20T03:57:20.797Z,66.83
2016-07-20T03:58:26.129Z,66.88
2016-07-20T03:59:33.645Z,66.82
2016-07-20T04:00:45.689Z,66.83
2016-07-20T04:01:50.414Z,66.94
2016-07-20T04:02:49.916Z,66.77
2016-07-20T04:03:54.680Z,66.79
2016-07-20T04:04:45.433Z,66.79
2016-07-20T04:05:59.528Z,66.70
2016-07-20T04:06:48.811Z,66.65
2016-07-20T04:07:45.521Z,66.63
2016-07-20T04:08:49.340Z,66.68
2016-07-20T04:09:45.733Z,66.56
2016-07-20T04:10:45.885Z,66.62
2016-07-20T04:11:51.122Z,66.51
2016-07-20T04:12:43.931Z,66.51
2016-07-20T04:13:12.880Z,66.57
2016-07-20T04:14:48.365Z,66.62
2016-07-20T04:15:45.999Z,66.65
2016-07-20T04:16:55.463Z,66.80
2016-07-20T04:17:52.016Z,66.84
2016-07-20T04:18:44.201Z,66.92
2016-07-20T04:19:55.522Z,67.16
2016-07-20T04:20:44.869Z,67.13
2016-07-20T04:21:56.172Z,67.20
2016-07-20T04:22:57.750Z,67.37
2016-07-20T04:23:45.078Z,67.33
2016-07-20T04:24:45.163Z,67.25
2016-07-20T04:25:55.220Z,67.29
2016-07-20T04:26:55.296Z,67.47
2016-07-20T04:27:54.720Z,67.32
2016-07-20T04:28:54.951Z,67.40
2016-07-20T04:29:55.864Z,67.46
2016-07-20T04:30:50.523Z,67.48
2016-07-20T04:31:44.756Z,67.43
2016-07-20T04:32:44.504Z,67.53
2016-07-20T04:33:46.018Z,67.76
2016-07-20T04:34:40.900Z,67.62
2016-07-20T04:35:43.526Z,67.91
2016-07-20T04:36:48.683Z,67.81
2016-07-20T04:37:39.736Z,67.77
2016-07-20T04:38:46.420Z,67.78
2016-07-20T04:39:35.679Z,67.98
2016-07-20T04:40:43.093Z,68.01
2016-07-20T04:41:57.666Z,67.86
2016-07-20T04:42:46.163Z,67.94
2016-07-20T04:43:47.086Z,67.93
2016-07-20T04:45:00.162Z,68.10
2016-07-20T04:45:48.692Z,67.96
2016-07-20T04:46:55.181Z,67.95
2016-07-20T04:47:46.498Z,67.79
2016-07-20T04:48:46.029Z,67.93
2016-07-20T04:49:55.111Z,67.98
2016-07-20T04:50:56.011Z,67.89
2016-07-20T04:51:50.822Z,67.95
2016-07-20T04:52:48.123Z,68.15
2016-07-20T04:53:40.137Z,68.09
2016-07-20T04:54:49.365Z,68.36
2016-07-20T04:55:49.959Z,68.28
2016-07-20T04:56:45.262Z,68.37
2016-07-20T04:58:00.716Z,68.29
2016-07-20T04:58:40.516Z,68.38
2016-07-20T04:59:15.372Z,68.66
2016-07-20T05:00:21.213Z,68.77
2016-07-20T05:01:42.494Z,68.70
2016-07-20T05:02:28.087Z,68.48
2016-07-20T05:03:32.579Z,68.47
2016-07-20T05:04:43.328Z,68.48
2016-07-20T05:05:13.223Z,68.50
2016-07-20T05:06:23.510Z,68.60
2016-07-20T05:07:12.837Z,68.53
2016-07-20T05:08:14.217Z,68.61
2016-07-20T05:09:35.742Z,68.67
2016-07-20T05:10:27.245Z,68.80
2016-07-20T05:11:36.406Z,68.93
2016-07-20T05:12:42.653Z,68.96
2016-07-20T05:13:22.085Z,68.79
2016-07-20T05:14:19.608Z,68.91
2016-07-20T05:16:08.042Z,68.83
2016-07-20T05:17:05.642Z,68.83
2016-07-20T05:17:56.481Z,68.93
2016-07-20T05:18:48.493Z,69.26
2016-07-20T05:19:56.925Z,69.15
2016-07-20T05:20:49.414Z,69.15
2016-07-20T05:21:47.747Z,69.11
2016-07-20T05:22:42.873Z,69.18
2016-07-20T05:23:57.649Z,69.61
2016-07-20T05:24:39.738Z,69.69
2016-07-20T05:25:56.852Z,69.90
2016-07-20T05:26:45.040Z,70.02
2016-07-20T05:27:40.011Z,69.64
2016-07-20T05:28:47.028Z,69.53
2016-07-20T05:29:48.013Z,69.38
2016-07-20T05:30:43.928Z,69.36
2016-07-20T05:31:56.202Z,69.36
2016-07-20T05:33:04.531Z,69.44
2016-07-20T05:33:43.674Z,69.19
2016-07-20T05:34:43.116Z,68.21
2016-07-20T05:35:45.401Z,67.89
2016-07-20T05:36:45.620Z,67.88
2016-07-20T05:37:43.581Z,68.49
2016-07-20T05:38:26.885Z,69.12
2016-07-20T05:39:31.995Z,69.25
2016-07-20T05:40:33.385Z,69.38
2016-07-20T05:41:39.245Z,69.56
2016-07-20T05:42:27.833Z,69.65
2016-07-20T05:43:54.109Z,69.74
2016-07-20T05:44:43.986Z,69.77
2016-07-20T05:45:40.937Z,70.27
2016-07-20T05:46:27.516Z,69.86
2016-07-20T05:47:28.190Z,69.81
2016-07-20T05:48:23.219Z,69.26
2016-07-20T05:49:31.131Z,68.92
2016-07-20T05:50:28.540Z,68.64
2016-07-20T05:51:33.458Z,68.54
2016-07-20T05:52:32.671Z,68.36
2016-07-20T05:53:28.367Z,68.20
2016-07-20T05:54:31.084Z,68.02
2016-07-20T05:55:35.689Z,67.63
2016-07-20T05:56:29.210Z,68.05
2016-07-20T05:57:43.303Z,67.83
2016-07-20T05:58:29.018Z,67.80
2016-07-20T05:59:43.594Z,67.67
2016-07-20T06:00:38.826Z,67.63
2016-07-20T06:01:44.131Z,67.58
2016-07-20T06:02:44.590Z,67.51
2016-07-20T06:03:36.117Z,67.46
2016-07-20T06:04:35.661Z,67.40
2016-07-20T06:05:26.629Z,67.40
2016-07-20T06:06:21.150Z,67.36
2016-07-20T06:07:26.218Z,67.22
2016-07-20T06:08:29.784Z,67.14
2016-07-20T06:09:32.363Z,67.10
2016-07-20T06:10:29.391Z,66.95
2016-07-20T06:11:32.795Z,66.85
2016-07-20T06:12:28.150Z,66.77
2016-07-20T06:13:33.431Z,66.69
2016-07-20T06:14:30.528Z,66.63
2016-07-20T06:15:30.639Z,66.51
2016-07-20T06:16:31.760Z,66.44
2016-07-20T06:17:42.889Z,66.38
2016-07-20T06:18:34.583Z,66.35
2016-07-20T06:19:46.562Z,66.37
2016-07-20T06:20:47.157Z,66.31
2016-07-20T06:21:55.014Z,66.27
2016-07-20T06:22:48.988Z,66.20
2016-07-20T06:23:48.454Z,66.16
2016-07-20T06:24:50.818Z,66.08
2016-07-20T06:25:48.156Z,66.06
2016-07-20T06:26:52.542Z,66.00
2016-07-20T06:27:49.204Z,65.82
2016-07-20T06:28:47.402Z,64.87
2016-07-20T06:29:47.085Z,64.73
2016-07-20T06:30:47.835Z,65.45
2016-07-20T06:31:44.373Z,64.58
2016-07-20T06:32:49.054Z,64.26
2016-07-20T06:33:52.520Z,64.24
2016-07-20T06:34:56.070Z,64.45
2016-07-20T06:35:46.738Z,65.17
2016-07-20T06:36:57.239Z,65.35
2016-07-20T06:37:57.976Z,65.43
2016-07-20T06:38:47.118Z,65.31
2016-07-20T06:39:43.444Z,64.43
2016-07-20T06:40:58.749Z,64.15
2016-07-20T06:41:43.609Z,64.17
2016-07-20T06:42:41.539Z,63.92
2016-07-20T06:43:39.774Z,63.82
2016-07-20T06:44:34.084Z,63.82
2016-07-20T06:45:55.495Z,64.73
2016-07-20T06:46:49.891Z,64.97
2016-07-20T06:47:49.712Z,65.03
2016-07-20T06:48:44.397Z,65.09
2016-07-20T06:49:27.464Z,64.95
2016-07-20T06:50:43.727Z,64.18
2016-07-20T06:51:48.638Z,64.11
2016-07-20T06:52:48.639Z,64.69
2016-07-20T06:53:50.733Z,64.89
2016-07-20T06:55:02.739Z,64.91
2016-07-20T06:55:45.114Z,64.91
2016-07-20T06:56:59.488Z,64.95
2016-07-20T06:57:52.681Z,64.90
2016-07-20T06:58:51.679Z,64.90
2016-07-20T06:59:45.542Z,64.87
2016-07-20T07:00:41.482Z,64.88
2016-07-20T07:01:33.017Z,64.87
2016-07-20T07:02:49.893Z,64.87
2016-07-20T07:03:43.185Z,64.84
2016-07-20T07:04:54.208Z,64.81
2016-07-20T07:05:43.931Z,64.76
2016-07-20T07:06:50.357Z,64.71
2016-07-20T07:07:50.302Z,64.72
2016-07-20T07:08:49.099Z,64.72
2016-07-20T07:09:44.518Z,64.64
2016-07-20T07:10:40.706Z,64.70
2016-07-20T07:11:48.577Z,64.65
2016-07-20T07:12:44.138Z,64.66
2016-07-20T07:13:46.779Z,64.64
2016-07-20T07:14:37.285Z,64.62
2016-07-20T07:15:54.010Z,64.54
2016-07-20T07:16:46.298Z,64.54
2016-07-20T07:17:49.847Z,64.55
2016-07-20T07:18:33.919Z,64.51
2016-07-20T07:19:48.577Z,64.49
2016-07-20T07:20:44.959Z,64.50
2016-07-20T07:21:44.678Z,64.50
2016-07-20T07:22:33.541Z,64.47
2016-07-20T07:23:49.574Z,63.42
2016-07-20T07:24:42.512Z,63.20
2016-07-20T07:25:49.811Z,64.04
2016-07-20T07:26:33.943Z,64.20
2016-07-20T07:27:27.799Z,64.30
2016-07-20T07:28:41.925Z,64.29
2016-07-20T07:29:50.560Z,64.31
2016-07-20T07:30:50.668Z,64.31
2016-07-20T07:31:33.046Z,64.29
2016-07-20T07:32:44.109Z,64.27
2016-07-20T07:33:54.543Z,64.24
2016-07-20T07:34:49.154Z,64.23
2016-07-20T07:35:33.689Z,64.18
2016-07-20T07:36:46.406Z,64.20
2016-07-20T07:37:48.951Z,64.20
2016-07-20T07:38:40.572Z,64.19
2016-07-20T07:39:59.651Z,64.18
2016-07-20T07:40:35.807Z,64.19
2016-07-20T07:41:46.330Z,63.15
2016-07-20T07:42:40.562Z,63.92
2016-07-20T07:43:50.945Z,64.01
2016-07-20T07:44:47.951Z,64.05
2016-07-20T07:45:53.628Z,64.05
2016-07-20T07:46:40.178Z,64.05
2016-07-20T07:47:46.732Z,64.02
2016-07-20T07:48:45.943Z,64.03
2016-07-20T07:50:03.499Z,64.05
2016-07-20T07:50:29.046Z,64.02
2016-07-20T07:51:32.568Z,64.03
2016-07-20T07:52:41.835Z,64.03
2016-07-20T07:53:50.164Z,64.03
2016-07-20T07:54:34.845Z,64.02
2016-07-20T07:55:17.027Z,64.00
2016-07-20T07:56:53.872Z,63.98
2016-07-20T07:57:59.302Z,63.96
2016-07-20T07:58:26.186Z,63.95
2016-07-20T07:59:43.767Z,63.94
2016-07-20T08:01:06.538Z,63.93
2016-07-20T08:01:16.986Z,63.90
2016-07-20T08:02:21.410Z,63.89
2016-07-20T08:03:29.410Z,63.87
2016-07-20T08:04:57.422Z,63.86
2016-07-20T08:05:15.865Z,63.86
2016-07-20T08:06:20.591Z,63.83
2016-07-20T08:07:58.837Z,63.82
2016-07-20T08:08:17.991Z,63.81
2016-07-20T08:09:18.157Z,63.79
2016-07-20T08:10:17.850Z,63.78
2016-07-20T08:11:30.655Z,63.76
2016-07-20T08:12:18.765Z,63.74
2016-07-20T08:13:17.320Z,63.76
2016-07-20T08:14:18.580Z,63.74
2016-07-20T08:15:37.775Z,63.72
2016-07-20T08:16:44.827Z,63.72
2016-07-20T08:17:19.438Z,63.71
2016-07-20T08:18:18.856Z,63.72
2016-07-20T08:19:40.297Z,63.72
2016-07-20T08:20:27.182Z,63.72
2016-07-20T08:21:17.660Z,63.51
2016-07-20T08:22:18.400Z,62.68
2016-07-20T08:23:28.920Z,62.46
2016-07-20T08:24:17.821Z,62.34
2016-07-20T08:25:45.480Z,62.27
2016-07-20T08:26:16.299Z,62.20
2016-07-20T08:27:48.050Z,62.49
2016-07-20T08:28:18.944Z,63.18
2016-07-20T08:29:15.862Z,63.37
2016-07-20T08:30:15.912Z,63.47
2016-07-20T08:31:31.474Z,63.52
2016-07-20T08:32:16.838Z,63.54
2016-07-20T08:33:30.134Z,63.55
2016-07-20T08:34:17.391Z,63.56
2016-07-20T08:35:17.998Z,63.56
2016-07-20T08:36:19.390Z,63.57
2016-07-20T08:37:17.497Z,63.54
2016-07-20T08:38:18.130Z,63.54
2016-07-20T08:39:44.970Z,63.55
2016-07-20T08:40:16.468Z,63.53
2016-07-20T08:41:18.780Z,63.50
2016-07-20T08:42:16.351Z,63.51
2016-07-20T08:43:14.288Z,63.49
2016-07-20T08:44:17.312Z,63.47
2016-07-20T08:45:16.286Z,63.44
2016-07-20T08:46:15.786Z,63.44
2016-07-20T08:47:16.287Z,63.44
2016-07-20T08:48:16.207Z,63.43
2016-07-20T08:49:17.708Z,63.41
2016-07-20T08:50:17.077Z,63.38
2016-07-20T08:51:16.581Z,63.38
2016-07-20T08:52:16.239Z,63.36
2016-07-20T08:53:16.791Z,63.32
2016-07-20T08:54:18.971Z,63.33
2016-07-20T08:55:16.663Z,63.30
2016-07-20T08:56:17.787Z,63.29
2016-07-20T08:57:13.948Z,63.28
2016-07-20T08:58:14.636Z,63.26
2016-07-20T08:59:19.030Z,63.24
2016-07-20T09:00:27.061Z,63.23
2016-07-20T09:01:13.877Z,63.22
2016-07-20T09:02:20.774Z,63.23
2016-07-20T09:03:34.075Z,63.19
2016-07-20T09:04:45.679Z,63.16
2016-07-20T09:05:36.203Z,63.15
2016-07-20T09:06:50.306Z,63.13
2016-07-20T09:07:31.494Z,63.10
2016-07-20T09:08:35.840Z,63.08
2016-07-20T09:09:37.409Z,63.07
2016-07-20T09:10:15.846Z,63.03
2016-07-20T09:11:43.688Z,63.00
2016-07-20T09:12:39.468Z,62.99
2016-07-20T09:13:44.653Z,62.97
2016-07-20T09:14:14.270Z,62.94
2016-07-20T09:15:43.810Z,62.95
2016-07-20T09:16:51.095Z,62.09
2016-07-20T09:17:57.200Z,62.69
2016-07-20T09:18:34.498Z,62.78
2016-07-20T09:19:42.609Z,62.79
2016-07-20T09:20:46.988Z,62.77
2016-07-20T09:21:37.410Z,62.77
2016-07-20T09:22:39.869Z,62.77
2016-07-20T09:23:46.864Z,62.75
2016-07-20T09:24:27.076Z,62.74
2016-07-20T09:25:18.563Z,62.69
2016-07-20T09:26:32.727Z,62.69
2016-07-20T09:27:42.995Z,62.67
2016-07-20T09:28:43.449Z,62.64
2016-07-20T09:29:43.516Z,62.63
2016-07-20T09:30:44.810Z,62.60
2016-07-20T09:31:39.786Z,62.59
2016-07-20T09:32:45.660Z,62.57
2016-07-20T09:33:24.997Z,62.57
2016-07-20T09:34:15.870Z,62.54
2016-07-20T09:35:16.498Z,62.51
2016-07-20T09:36:16.958Z,62.49
2016-07-20T09:37:16.701Z,62.46
2016-07-20T09:38:17.280Z,62.24
2016-07-20T09:39:16.010Z,61.80
2016-07-20T09:40:13.325Z,62.22
2016-07-20T09:41:15.569Z,61.32
2016-07-20T09:42:16.274Z,61.12
2016-07-20T09:43:16.070Z,61.02
2016-07-20T09:44:13.425Z,60.94
2016-07-20T09:45:15.948Z,60.91
2016-07-20T09:46:10.672Z,60.93
2016-07-20T09:47:12.233Z,60.86
2016-07-20T09:48:15.601Z,60.97
2016-07-20T09:49:12.717Z,61.80
2016-07-20T09:50:17.231Z,62.00
2016-07-20T09:51:13.514Z,62.11
2016-07-20T09:52:20.506Z,62.15
2016-07-20T09:53:12.606Z,62.18
2016-07-20T09:54:21.989Z,62.17
2016-07-20T09:55:22.402Z,62.19
2016-07-20T09:56:22.995Z,62.17
2016-07-20T09:57:23.664Z,62.15
2016-07-20T09:58:15.221Z,62.17
2016-07-20T09:59:23.728Z,62.17
2016-07-20T10:00:24.106Z,62.17
2016-07-20T10:01:15.628Z,62.16
2016-07-20T10:02:12.880Z,62.16
2016-07-20T10:03:20.629Z,62.16
2016-07-20T10:04:24.356Z,61.17
2016-07-20T10:05:33.033Z,60.92
2016-07-20T10:06:49.531Z,61.03
2016-07-20T10:07:39.785Z,61.76
2016-07-20T10:08:46.333Z,61.95
2016-07-20T10:09:45.675Z,61.99
2016-07-20T10:10:25.818Z,62.04
2016-07-20T10:11:55.457Z,62.07
2016-07-20T10:12:35.760Z,61.93
2016-07-20T10:13:52.033Z,61.30
2016-07-20T10:14:36.187Z,61.89
2016-07-20T10:15:30.781Z,62.02
2016-07-20T10:16:46.417Z,62.07
2016-07-20T10:17:43.186Z,62.08
2016-07-20T10:18:47.891Z,62.11
2016-07-20T10:19:33.039Z,62.13
2016-07-20T10:20:43.704Z,62.13
2016-07-20T10:21:45.061Z,62.13
2016-07-20T10:22:32.701Z,62.11
2016-07-20T10:23:40.730Z,62.06
2016-07-20T10:24:55.167Z,62.05
2016-07-20T10:25:44.492Z,62.00
2016-07-20T10:26:43.711Z,61.97
2016-07-20T10:27:24.592Z,61.93
2016-07-20T10:28:37.830Z,61.97
2016-07-20T10:29:41.063Z,61.86
2016-07-20T10:30:26.472Z,61.90
2016-07-20T10:31:55.286Z,61.84
2016-07-20T10:32:57.544Z,61.78
2016-07-20T10:33:33.385Z,61.87
2016-07-20T10:34:40.470Z,61.82
2016-07-20T10:35:44.761Z,60.76
2016-07-20T10:36:39.763Z,60.49
2016-07-20T10:37:46.223Z,60.37
2016-07-20T10:38:53.127Z,60.29
2016-07-20T10:39:16.487Z,60.27
2016-07-20T10:40:50.230Z,60.20
2016-07-20T10:41:33.302Z,60.14
2016-07-20T10:42:34.761Z,60.14
2016-07-20T10:43:49.106Z,60.09
2016-07-20T10:44:25.232Z,60.15
2016-07-20T10:45:44.448Z,60.13
2016-07-20T10:46:43.379Z,60.07
2016-07-20T10:47:44.729Z,60.12
2016-07-20T10:48:32.931Z,60.06
2016-07-20T10:49:32.247Z,60.12
2016-07-20T10:50:15.212Z,61.01
2016-07-20T10:51:43.269Z,61.27
2016-07-20T10:52:44.219Z,61.37
2016-07-20T10:53:44.172Z,61.38
2016-07-20T10:54:56.183Z,61.41
2016-07-20T10:55:46.554Z,61.45
2016-07-20T10:56:44.350Z,61.49
2016-07-20T10:57:37.036Z,61.50
2016-07-20T10:58:49.732Z,61.50
2016-07-20T10:59:22.617Z,61.52
2016-07-20T11:00:43.078Z,61.53
2016-07-20T11:01:52.947Z,61.54
2016-07-20T11:02:26.908Z,61.49
2016-07-20T11:03:45.538Z,61.50
2016-07-20T11:04:37.510Z,61.56
2016-07-20T11:05:56.209Z,61.53
2016-07-20T11:06:38.038Z,61.48
2016-07-20T11:07:40.752Z,61.61
2016-07-20T11:08:45.942Z,61.67
2016-07-20T11:09:45.512Z,61.41
2016-07-20T11:10:55.041Z,60.49
2016-07-20T11:11:33.833Z,60.35
2016-07-20T11:12:44.181Z,60.37
2016-07-20T11:13:33.360Z,60.16
2016-07-20T11:14:49.469Z,60.26
2016-07-20T11:15:45.708Z,61.11
2016-07-20T11:16:54.043Z,61.31
2016-07-20T11:17:48.391Z,61.50
2016-07-20T11:18:22.744Z,61.41
2016-07-20T11:19:44.058Z,61.41
2016-07-20T11:20:46.039Z,61.47
2016-07-20T11:21:54.613Z,61.48
2016-07-20T11:22:41.143Z,61.58
2016-07-20T11:23:46.946Z,61.45
2016-07-20T11:24:54.774Z,61.49
2016-07-20T11:25:28.628Z,61.55
2016-07-20T11:26:41.253Z,61.50
2016-07-20T11:27:42.543Z,61.51
2016-07-20T11:28:46.303Z,61.38
2016-07-20T11:29:36.749Z,61.39
2016-07-20T11:30:44.501Z,61.55
2016-07-20T11:31:33.270Z,61.52
2016-07-20T11:32:42.101Z,61.53
2016-07-20T11:33:40.974Z,61.38
2016-07-20T11:34:47.333Z,61.50
2016-07-20T11:35:39.255Z,61.53
2016-07-20T11:36:38.987Z,61.45
2016-07-20T11:37:13.234Z,61.61
2016-07-20T11:38:40.994Z,61.43
2016-07-20T11:39:37.997Z,61.28
2016-07-20T11:40:45.759Z,60.75
2016-07-20T11:41:44.109Z,61.15
2016-07-20T11:42:27.873Z,61.17
2016-07-20T11:43:36.108Z,60.43
2016-07-20T11:44:44.813Z,60.20
2016-07-20T11:45:46.482Z,61.15
2016-07-20T11:46:45.947Z,61.31
2016-07-20T11:47:47.096Z,61.36
2016-07-20T11:48:44.415Z,61.33
2016-07-20T11:49:33.716Z,61.46
2016-07-20T11:50:43.972Z,61.31
2016-07-20T11:51:44.278Z,61.46
2016-07-20T11:52:42.552Z,61.43
2016-07-20T11:53:44.371Z,61.48
2016-07-20T11:54:28.311Z,61.51
2016-07-20T11:55:38.797Z,61.48
2016-07-20T11:56:41.897Z,61.48
2016-07-20T11:57:39.695Z,61.53
2016-07-20T11:58:44.787Z,61.46
2016-07-20T11:59:50.024Z,61.33
2016-07-20T12:00:41.480Z,61.51
2016-07-20T12:01:31.534Z,61.56
2016-07-20T12:02:39.310Z,61.44
2016-07-20T12:03:30.698Z,61.32
2016-07-20T12:04:32.235Z,61.47
2016-07-20T12:05:41.959Z,61.47
2016-07-20T12:06:15.360Z,61.45
2016-07-20T12:07:49.392Z,61.40
2016-07-20T12:08:44.411Z,61.40
2016-07-20T12:09:43.036Z,61.41
2016-07-20T12:10:37.461Z,61.40
2016-07-20T12:11:50.676Z,61.34
2016-07-20T12:12:32.973Z,61.49
2016-07-20T12:13:25.060Z,61.41
2016-07-20T12:14:46.007Z,61.40
2016-07-20T12:15:48.738Z,61.46
2016-07-20T12:16:41.677Z,61.44
2016-07-20T12:17:41.194Z,61.42
2016-07-20T12:18:37.932Z,61.42
2016-07-20T12:19:33.011Z,61.43
2016-07-20T12:20:47.778Z,61.46
2016-07-20T12:21:40.285Z,61.43
2016-07-20T12:22:47.147Z,61.43
2016-07-20T12:23:41.450Z,61.43
2016-07-20T12:24:45.207Z,61.40
2016-07-20T12:25:45.527Z,61.39
2016-07-20T12:26:30.566Z,61.38
2016-07-20T12:27:30.707Z,61.36
2016-07-20T12:28:53.864Z,61.36
2016-07-20T12:29:14.312Z,61.37
2016-07-20T12:30:16.836Z,61.36
2016-07-20T12:31:18.184Z,61.31
2016-07-20T12:32:17.353Z,61.35
2016-07-20T12:33:21.102Z,61.28
2016-07-20T12:34:16.615Z,61.29
2016-07-20T12:35:16.868Z,61.28
2016-07-20T12:36:21.602Z,61.30
2016-07-20T12:37:15.752Z,61.23
2016-07-20T12:38:20.774Z,61.26
2016-07-20T12:39:17.784Z,61.20
2016-07-20T12:40:18.212Z,61.18
2016-07-20T12:41:16.873Z,61.18
2016-07-20T12:42:16.629Z,61.13
2016-07-20T12:43:18.854Z,61.14
2016-07-20T12:44:15.999Z,61.08
2016-07-20T12:45:15.859Z,61.09
2016-07-20T12:46:16.034Z,61.08
2016-07-20T12:47:16.055Z,61.10
2016-07-20T12:48:16.634Z,61.06
2016-07-20T12:49:12.887Z,61.08
2016-07-20T12:50:16.624Z,61.07
2016-07-20T12:51:12.933Z,61.03
2016-07-20T12:52:19.236Z,61.01